Time;durP1;ratioP1;P1;durP2;ratioP2;P2;SDS_P1;SDS_P2;PMS_P1;PMS_P2;Temp;Humidity;BMP_temperature;BMP_pressure;BME280_temperature;BME280_humidity;BME280_pressure;Samples;Min_cycle;Max_cycle;Signal;HPM_P1;HPM_P2
2022/04/16 00:01:33;;;;;;;26.97;16.47;;;;;;;;;;5026761;28;20190;-66
2022/04/16 00:03:58;;;;;;;25.00;16.30;;;;;;;;;;5025811;28;20665;-66
2022/04/16 00:06:24;;;;;;;25.47;15.90;;;;;;;;;;5029005;28;20630;-65
2022/04/16 00:08:49;;;;;;;27.17;16.00;;;;;;;;;;5023439;28;20178;-65
2022/04/16 00:11:14;;;;;;;27.17;16.10;;;;;;;;;;5028299;28;20412;-65
2022/04/16 00:13:40;;;;;;;26.17;15.43;;;;;;;;;;5015359;28;20190;-65
2022/04/16 00:16:06;;;;;;;25.97;16.50;;;;;;;;;;5024054;28;20767;-66
2022/04/16 00:18:32;;;;;;;27.43;16.03;;;;;;;;;;5028645;28;20192;-65
2022/04/16 00:20:57;;;;;;;28.77;16.03;;;;;;;;;;5028744;28;20687;-66
2022/04/16 00:23:23;;;;;;;27.77;16.27;;;;;;;;;;5028312;28;20221;-66
2022/04/16 00:25:49;;;;;;;22.93;15.60;;;;;;;;;;5027589;28;20178;-66
2022/04/16 00:28:15;;;;;;;30.40;15.60;;;;;;;;;;5013551;28;20252;-66
2022/04/16 00:30:40;;;;;;;26.50;14.97;;;;;;;;;;5019473;28;20230;-66
2022/04/16 00:33:12;;;;;;;30.03;16.67;;;;;;;;;;5029164;28;20181;-66
2022/04/16 00:35:39;;;;;;;27.00;15.17;;;;;;;;;;5026975;28;20257;-66
2022/04/16 00:38:05;;;;;;;25.87;14.93;;;;;;;;;;5016717;28;20534;-67
2022/04/16 00:40:30;;;;;;;27.77;16.43;;;;;;;;;;5018563;28;20170;-67
2022/04/16 00:42:57;;;;;;;29.87;16.40;;;;;;;;;;5019597;28;20289;-65
2022/04/16 00:45:22;;;;;;;26.10;14.87;;;;;;;;;;5022233;28;20213;-65
2022/04/16 00:47:48;;;;;;;28.87;15.77;;;;;;;;;;5020974;28;20647;-65
2022/04/16 00:50:14;;;;;;;28.97;17.13;;;;;;;;;;5023645;28;20171;-65
2022/04/16 00:52:40;;;;;;;29.40;17.27;;;;;;;;;;5021102;28;20243;-65
2022/04/16 00:55:08;;;;;;;28.80;16.17;;;;;;;;;;5025494;28;20245;-65
2022/04/16 00:57:34;;;;;;;30.57;16.70;;;;;;;;;;5027390;28;20186;-65
2022/04/16 01:00:00;;;;;;;28.63;16.07;;;;;;;;;;5017751;28;20210;-65
2022/04/16 01:02:26;;;;;;;28.47;16.57;;;;;;;;;;5008039;28;20214;-66
2022/04/16 01:04:52;;;;;;;29.87;16.63;;;;;;;;;;5023250;28;20234;-66
2022/04/16 01:07:24;;;;;;;32.30;17.07;;;;;;;;;;5026224;28;20642;-66
2022/04/16 01:09:50;;;;;;;26.10;16.67;;;;;;;;;;5026070;28;20189;-66
2022/04/16 01:12:16;;;;;;;27.50;16.37;;;;;;;;;;5022382;28;20227;-66
2022/04/16 01:14:41;;;;;;;28.40;16.03;;;;;;;;;;5020034;28;20244;-66
2022/04/16 01:17:06;;;;;;;30.73;17.10;;;;;;;;;;5028281;28;20198;-66
2022/04/16 01:19:32;;;;;;;29.60;16.87;;;;;;;;;;5014943;28;20567;-66
2022/04/16 01:21:58;;;;;;;32.13;17.67;;;;;;;;;;5027488;28;21076;-67
2022/04/16 01:24:23;;;;;;;30.70;16.63;;;;;;;;;;5020667;28;20276;-65
2022/04/16 01:26:51;;;;;;;30.40;17.03;;;;;;;;;;5025829;28;20603;-66
2022/04/16 01:29:17;;;;;;;29.63;17.40;;;;;;;;;;5016895;28;20240;-65
2022/04/16 01:31:42;;;;;;;33.37;17.90;;;;;;;;;;5023696;28;20190;-66
2022/04/16 01:34:08;;;;;;;30.77;18.10;;;;;;;;;;5015170;28;20631;-66
2022/04/16 01:36:34;;;;;;;33.60;18.93;;;;;;;;;;5025195;28;20178;-66
2022/04/16 01:39:00;;;;;;;30.60;17.40;;;;;;;;;;5027385;28;20170;-66
2022/04/16 01:41:27;;;;;;;33.97;17.93;;;;;;;;;;5025596;28;20269;-66
2022/04/16 01:43:54;;;;;;;30.57;17.13;;;;;;;;;;5017767;28;20677;-65
2022/04/16 01:46:19;;;;;;;30.73;16.50;;;;;;;;;;5028997;28;20373;-66
2022/04/16 01:48:45;;;;;;;34.83;18.60;;;;;;;;;;5030785;28;20287;-66
2022/04/16 01:51:10;;;;;;;36.20;18.93;;;;;;;;;;5027837;28;20185;-66
2022/04/16 01:53:35;;;;;;;33.73;19.37;;;;;;;;;;5022950;28;20178;-66
2022/04/16 01:56:01;;;;;;;33.97;18.83;;;;;;;;;;5026325;28;20182;-66
2022/04/16 01:58:27;;;;;;;38.70;21.27;;;;;;;;;;5030707;28;20252;-65
2022/04/16 02:00:52;;;;;;;37.70;21.17;;;;;;;;;;5031321;28;20197;-65
2022/04/16 02:03:19;;;;;;;40.67;22.27;;;;;;;;;;5027360;28;20222;-65
2022/04/16 02:05:45;;;;;;;39.57;22.47;;;;;;;;;;5029219;28;20175;-65
2022/04/16 02:08:10;;;;;;;43.77;21.23;;;;;;;;;;5026501;28;20198;-65
2022/04/16 02:10:36;;;;;;;40.97;22.80;;;;;;;;;;5024864;28;20220;-65
2022/04/16 02:13:01;;;;;;;42.90;22.40;;;;;;;;;;5014526;28;20225;-65
2022/04/16 02:15:27;;;;;;;40.73;22.90;;;;;;;;;;5029831;28;20178;-65
2022/04/16 02:17:56;;;;;;;47.67;24.80;;;;;;;;;;5025518;28;20178;-66
2022/04/16 02:20:23;;;;;;;49.50;25.17;;;;;;;;;;5030377;28;20610;-65
2022/04/16 02:22:48;;;;;;;44.93;24.53;;;;;;;;;;5028814;28;20225;-66
2022/04/16 02:25:20;;;;;;;44.97;24.13;;;;;;;;;;5025706;28;20228;-66
2022/04/16 02:27:46;;;;;;;47.60;25.27;;;;;;;;;;5024126;28;20182;-66
2022/04/16 02:30:14;;;;;;;53.77;27.00;;;;;;;;;;5022944;28;20296;-66
2022/04/16 02:32:42;;;;;;;48.43;24.33;;;;;;;;;;5024407;28;20606;-66
2022/04/16 02:35:08;;;;;;;50.57;25.53;;;;;;;;;;5028619;28;20233;-66
2022/04/16 02:37:34;;;;;;;52.40;27.27;;;;;;;;;;5026037;28;20182;-66
2022/04/16 02:40:00;;;;;;;55.83;28.60;;;;;;;;;;5027196;28;20265;-66
2022/04/16 02:42:25;;;;;;;57.30;27.87;;;;;;;;;;5027907;28;20339;-66
2022/04/16 02:47:35;;;;;;;56.57;27.80;;;;;;;;;;5025141;28;20201;-66
2022/04/16 02:50:00;;;;;;;59.67;28.83;;;;;;;;;;5024569;28;20182;-65
2022/04/16 02:52:25;;;;;;;57.70;30.33;;;;;;;;;;5023822;28;20226;-65
2022/04/16 02:54:54;;;;;;;68.87;31.03;;;;;;;;;;5027752;28;20182;-65
2022/04/16 02:57:19;;;;;;;69.57;31.10;;;;;;;;;;5028662;28;20182;-65
2022/04/16 02:59:46;;;;;;;64.60;31.00;;;;;;;;;;5021828;28;20661;-65
2022/04/16 03:02:14;;;;;;;64.90;30.53;;;;;;;;;;5031099;28;20178;-66
2022/04/16 03:04:39;;;;;;;64.47;30.60;;;;;;;;;;5025338;28;20653;-66
2022/04/16 03:07:05;;;;;;;66.33;30.30;;;;;;;;;;5023216;28;20182;-66
2022/04/16 03:09:30;;;;;;;68.00;30.43;;;;;;;;;;5029160;28;20244;-66
2022/04/16 03:11:56;;;;;;;68.07;32.27;;;;;;;;;;5028893;28;20783;-66
2022/04/16 03:20:07;;;;;;;76.83;34.40;;;;;;;;;;5027795;28;20182;-66
2022/04/16 03:22:33;;;;;;;86.50;36.27;;;;;;;;;;5028865;28;20206;-66
2022/04/16 03:25:07;;;;;;;83.27;34.40;;;;;;;;;;5029754;28;20260;-65
2022/04/16 03:27:32;;;;;;;76.03;32.33;;;;;;;;;;5017936;28;20692;-65
2022/04/16 03:29:58;;;;;;;79.33;34.80;;;;;;;;;;5027065;28;20178;-66
2022/04/16 03:32:23;;;;;;;86.03;36.23;;;;;;;;;;5021226;28;20538;-66
2022/04/16 03:34:48;;;;;;;74.00;32.77;;;;;;;;;;5023545;28;20210;-66
2022/04/16 03:37:14;;;;;;;80.37;33.10;;;;;;;;;;5023543;28;20527;-66
2022/04/16 03:39:39;;;;;;;79.00;34.97;;;;;;;;;;5026007;28;20209;-66
2022/04/16 03:42:04;;;;;;;79.80;34.37;;;;;;;;;;5023275;28;20253;-66
2022/04/16 03:44:30;;;;;;;68.00;32.73;;;;;;;;;;5026604;28;20257;-66
2022/04/16 03:46:55;;;;;;;80.20;33.80;;;;;;;;;;5028878;28;20228;-66
2022/04/16 03:49:21;;;;;;;78.97;33.40;;;;;;;;;;5029231;28;20178;-66
2022/04/16 03:51:46;;;;;;;68.73;31.70;;;;;;;;;;5027882;28;20567;-66
2022/04/16 04:02:24;;;;;;;70.37;31.87;;;;;;;;;;5024651;28;20352;-66
2022/04/16 04:04:49;;;;;;;78.77;33.10;;;;;;;;;;5025119;28;20676;-66
2022/04/16 04:07:15;;;;;;;72.40;33.20;;;;;;;;;;5026625;28;20197;-66
2022/04/16 04:09:40;;;;;;;76.93;32.87;;;;;;;;;;5026194;28;20186;-66
2022/04/16 04:12:10;;;;;;;83.20;33.20;;;;;;;;;;5027026;28;20260;-66
2022/04/16 04:14:43;;;;;;;73.80;32.77;;;;;;;;;;5023701;28;20185;-66
2022/04/16 04:17:09;;;;;;;72.47;32.20;;;;;;;;;;5027722;28;20213;-65
2022/04/16 04:19:40;;;;;;;83.40;34.37;;;;;;;;;;5027878;28;20243;-66
2022/04/16 04:22:07;;;;;;;81.07;33.03;;;;;;;;;;5026569;28;20174;-66
2022/04/16 04:24:32;;;;;;;78.47;34.23;;;;;;;;;;5026434;28;20167;-65
2022/04/16 04:26:59;;;;;;;84.57;34.97;;;;;;;;;;5025435;28;20332;-66
2022/04/16 04:29:24;;;;;;;82.77;35.13;;;;;;;;;;5026768;28;20186;-66
2022/04/16 04:31:50;;;;;;;83.33;34.93;;;;;;;;;;5027727;28;20220;-66
2022/04/16 04:34:15;;;;;;;85.90;35.07;;;;;;;;;;5027841;28;20279;-66
2022/04/16 04:36:41;;;;;;;79.67;32.97;;;;;;;;;;5025856;28;20193;-66
2022/04/16 04:39:06;;;;;;;76.30;32.57;;;;;;;;;;5024498;28;20657;-66
2022/04/16 04:41:31;;;;;;;84.87;33.57;;;;;;;;;;5025309;28;20257;-66
2022/04/16 04:43:57;;;;;;;76.93;34.63;;;;;;;;;;5028110;28;20204;-65
2022/04/16 04:46:22;;;;;;;78.70;32.03;;;;;;;;;;5027327;28;20178;-66
2022/04/16 04:48:47;;;;;;;78.63;32.70;;;;;;;;;;5026359;28;20182;-66
2022/04/16 04:51:13;;;;;;;85.50;34.17;;;;;;;;;;5025493;28;20212;-66
2022/04/16 04:53:38;;;;;;;76.20;31.07;;;;;;;;;;5026312;28;20174;-65
2022/04/16 04:56:04;;;;;;;68.53;29.10;;;;;;;;;;5027298;28;20182;-65
2022/04/16 04:58:30;;;;;;;78.77;30.90;;;;;;;;;;5028436;28;20182;-65
2022/04/16 05:00:56;;;;;;;75.53;30.40;;;;;;;;;;5020898;28;20185;-66
2022/04/16 05:03:21;;;;;;;76.43;29.73;;;;;;;;;;5026774;28;20587;-66
2022/04/16 05:05:47;;;;;;;63.20;29.47;;;;;;;;;;5026491;28;20685;-65
2022/04/16 05:08:12;;;;;;;70.87;30.43;;;;;;;;;;5026773;28;20220;-66
2022/04/16 05:10:37;;;;;;;77.20;30.97;;;;;;;;;;5025739;28;20182;-66
2022/04/16 05:13:03;;;;;;;65.17;31.07;;;;;;;;;;5025135;28;20308;-66
2022/04/16 05:15:29;;;;;;;72.43;29.77;;;;;;;;;;5026406;28;20257;-66
2022/04/16 05:17:54;;;;;;;71.37;29.77;;;;;;;;;;5025883;28;20194;-66
2022/04/16 05:20:20;;;;;;;68.63;30.80;;;;;;;;;;5022693;28;20247;-66
2022/04/16 05:22:46;;;;;;;69.53;31.47;;;;;;;;;;5025215;28;20546;-66
2022/04/16 05:25:11;;;;;;;70.57;30.43;;;;;;;;;;5023086;28;20213;-65
2022/04/16 05:27:37;;;;;;;74.60;31.53;;;;;;;;;;5026874;28;20189;-66
2022/04/16 05:30:06;;;;;;;74.53;30.80;;;;;;;;;;5023549;28;20170;-66
2022/04/16 05:32:36;;;;;;;69.93;31.27;;;;;;;;;;5024660;28;20209;-65
2022/04/16 05:35:05;;;;;;;71.63;30.83;;;;;;;;;;5024093;28;20758;-65
2022/04/16 05:37:31;;;;;;;73.63;30.77;;;;;;;;;;5025658;28;20210;-65
2022/04/16 05:39:56;;;;;;;68.33;31.23;;;;;;;;;;5024530;28;20217;-65
2022/04/16 05:42:22;;;;;;;65.60;30.07;;;;;;;;;;5022194;28;20261;-65
2022/04/16 05:44:47;;;;;;;63.70;30.00;;;;;;;;;;5023710;28;20689;-65
2022/04/16 05:47:13;;;;;;;70.13;30.57;;;;;;;;;;5023923;28;20642;-65
2022/04/16 05:49:38;;;;;;;66.93;30.13;;;;;;;;;;5026056;28;20186;-65
2022/04/16 05:52:05;;;;;;;65.73;31.47;;;;;;;;;;5025529;28;20178;-65
2022/04/16 05:54:30;;;;;;;66.80;30.47;;;;;;;;;;5024709;28;20218;-65
2022/04/16 05:56:56;;;;;;;66.67;29.70;;;;;;;;;;5024405;28;20216;-65
2022/04/16 05:59:22;;;;;;;59.97;29.73;;;;;;;;;;5023394;28;20186;-65
2022/04/16 06:01:48;;;;;;;61.83;29.33;;;;;;;;;;5026456;28;20217;-65
2022/04/16 06:04:13;;;;;;;59.03;29.33;;;;;;;;;;5020399;28;22393;-66
2022/04/16 06:06:39;;;;;;;53.37;27.73;;;;;;;;;;5023397;28;20170;-65
2022/04/16 06:09:04;;;;;;;55.67;27.73;;;;;;;;;;5024119;28;20193;-65
2022/04/16 06:11:32;;;;;;;50.37;26.50;;;;;;;;;;5024643;28;20260;-66
2022/04/16 06:13:57;;;;;;;51.83;26.90;;;;;;;;;;5023178;28;20689;-65
2022/04/16 06:16:22;;;;;;;50.87;25.47;;;;;;;;;;5022086;28;20217;-67
2022/04/16 06:18:48;;;;;;;46.47;25.57;;;;;;;;;;5023406;28;20680;-65
2022/04/16 06:21:13;;;;;;;49.57;25.67;;;;;;;;;;5025531;28;20193;-66
2022/04/16 06:23:39;;;;;;;42.03;23.33;;;;;;;;;;5025045;28;20225;-64
2022/04/16 06:26:05;;;;;;;42.47;22.47;;;;;;;;;;5024034;28;20182;-65
2022/04/16 06:28:30;;;;;;;40.03;23.63;;;;;;;;;;5024635;28;20386;-65
2022/04/16 06:30:55;;;;;;;37.73;23.17;;;;;;;;;;5025731;28;20708;-65
2022/04/16 06:33:21;;;;;;;39.20;22.23;;;;;;;;;;5029517;28;20225;-65
2022/04/16 06:35:46;;;;;;;40.37;21.90;;;;;;;;;;5023107;28;20233;-65
2022/04/16 06:38:12;;;;;;;38.07;20.67;;;;;;;;;;5026653;28;20189;-65
2022/04/16 06:40:37;;;;;;;40.55;21.90;;;;;;;;;;5027698;28;20186;-65
2022/04/16 06:43:02;;;;;;;36.20;21.33;;;;;;;;;;5027331;28;20210;-66
2022/04/16 06:45:28;;;;;;;36.77;20.60;;;;;;;;;;5026122;28;20188;-65
2022/04/16 06:47:53;;;;;;;30.83;19.10;;;;;;;;;;5028526;28;20194;-66
2022/04/16 06:50:18;;;;;;;37.38;19.33;;;;;;;;;;5026990;28;20293;-66
2022/04/16 06:52:45;;;;;;;34.33;18.52;;;;;;;;;;5028066;28;20190;-66
2022/04/16 06:55:10;;;;;;;32.03;18.30;;;;;;;;;;5025084;28;20197;-65
2022/04/16 06:57:35;;;;;;;27.58;16.35;;;;;;;;;;5027149;28;20748;-67
2022/04/16 07:00:03;;;;;;;31.38;17.05;;;;;;;;;;5027949;28;20459;-67
2022/04/16 07:02:28;;;;;;;32.60;16.13;;;;;;;;;;5024377;28;20202;-66
2022/04/16 07:04:54;;;;;;;29.45;15.45;;;;;;;;;;5027406;28;20239;-66
2022/04/16 07:07:19;;;;;;;29.27;15.20;;;;;;;;;;5026040;28;20182;-66
2022/04/16 07:09:44;;;;;;;25.73;15.15;;;;;;;;;;5028250;28;20186;-66
2022/04/16 07:12:10;;;;;;;29.88;15.55;;;;;;;;;;5023133;28;20618;-66
2022/04/16 07:14:40;;;;;;;29.65;15.85;;;;;;;;;;5026480;28;20198;-66
2022/04/16 07:17:06;;;;;;;27.63;14.88;;;;;;;;;;5025982;28;20182;-66
2022/04/16 07:19:33;;;;;;;26.38;14.50;;;;;;;;;;5024909;28;20699;-66
2022/04/16 07:21:59;;;;;;;25.48;14.50;;;;;;;;;;5024188;28;20602;-66
2022/04/16 07:24:27;;;;;;;25.92;14.32;;;;;;;;;;5025416;28;20294;-66
2022/04/16 07:26:57;;;;;;;22.52;13.45;;;;;;;;;;5023413;28;20185;-66
2022/04/16 07:29:24;;;;;;;24.70;14.10;;;;;;;;;;5026866;28;20178;-66
2022/04/16 07:31:49;;;;;;;23.40;13.40;;;;;;;;;;5021864;28;20209;-66
2022/04/16 07:34:15;;;;;;;21.75;12.38;;;;;;;;;;5027457;28;20183;-66
2022/04/16 07:36:44;;;;;;;23.77;13.23;;;;;;;;;;5023520;28;20186;-66
2022/04/16 07:39:10;;;;;;;22.58;12.85;;;;;;;;;;5027714;28;20858;-66
2022/04/16 07:41:36;;;;;;;21.15;12.35;;;;;;;;;;5022117;28;20194;-66
2022/04/16 07:44:03;;;;;;;21.55;12.60;;;;;;;;;;5025275;28;20198;-66
2022/04/16 07:46:29;;;;;;;23.48;12.55;;;;;;;;;;5021265;28;20285;-66
2022/04/16 07:48:57;;;;;;;21.73;12.32;;;;;;;;;;5017069;28;20198;-66
2022/04/16 07:51:22;;;;;;;24.38;13.02;;;;;;;;;;5024522;28;20206;-66
2022/04/16 07:53:47;;;;;;;22.27;12.50;;;;;;;;;;5026760;28;20712;-66
2022/04/16 07:56:13;;;;;;;25.33;13.05;;;;;;;;;;5024872;28;20285;-66
2022/04/16 07:58:38;;;;;;;24.70;12.00;;;;;;;;;;5022751;28;20188;-66
2022/04/16 08:01:03;;;;;;;19.65;11.75;;;;;;;;;;5026856;28;20178;-66
2022/04/16 08:03:29;;;;;;;22.17;12.38;;;;;;;;;;5027957;28;20599;-66
2022/04/16 08:05:54;;;;;;;20.27;10.38;;;;;;;;;;5026829;28;20192;-66
2022/04/16 08:08:19;;;;;;;15.73;9.63;;;;;;;;;;5025558;28;20232;-66
2022/04/16 08:10:46;;;;;;;19.25;10.23;;;;;;;;;;5024831;28;20185;-66
2022/04/16 08:13:11;;;;;;;21.55;10.68;;;;;;;;;;5026756;28;20233;-66
2022/04/16 08:15:37;;;;;;;18.63;10.53;;;;;;;;;;5018377;28;20689;-67
2022/04/16 08:18:02;;;;;;;17.10;9.23;;;;;;;;;;5025829;28;20533;-67
2022/04/16 08:20:28;;;;;;;15.65;8.93;;;;;;;;;;5024234;28;20551;-66
2022/04/16 08:22:54;;;;;;;18.27;9.02;;;;;;;;;;5024440;28;20289;-66
2022/04/16 08:27:46;;;;;;;15.40;8.93;;;;;;;;;;5025985;28;20182;-66
2022/04/16 08:30:12;;;;;;;16.55;8.48;;;;;;;;;;5025021;28;20668;-66
2022/04/16 08:32:41;;;;;;;16.05;8.48;;;;;;;;;;5025991;28;20190;-66
2022/04/16 08:35:09;;;;;;;14.63;8.23;;;;;;;;;;5024873;28;20213;-66
2022/04/16 08:37:35;;;;;;;15.85;8.50;;;;;;;;;;5021922;28;20281;-66
2022/04/16 08:40:00;;;;;;;15.57;8.13;;;;;;;;;;5024421;28;20261;-66
2022/04/16 08:42:26;;;;;;;17.00;8.00;;;;;;;;;;5025228;28;20186;-66
2022/04/16 08:44:52;;;;;;;16.25;7.90;;;;;;;;;;5024783;28;20186;-66
2022/04/16 08:47:19;;;;;;;14.13;7.82;;;;;;;;;;5022960;28;20182;-66
2022/04/16 08:49:44;;;;;;;13.55;7.57;;;;;;;;;;5025206;28;20212;-67
2022/04/16 08:52:11;;;;;;;11.27;6.70;;;;;;;;;;5021744;28;20218;-66
2022/04/16 08:54:38;;;;;;;11.13;6.05;;;;;;;;;;5023404;28;20190;-65
2022/04/16 08:57:04;;;;;;;12.80;6.32;;;;;;;;;;5024980;28;20170;-67
2022/04/16 08:59:30;;;;;;;10.82;5.72;;;;;;;;;;5025788;28;20185;-66
2022/04/16 09:01:58;;;;;;;10.75;6.45;;;;;;;;;;5023037;28;20182;-66
2022/04/16 09:04:23;;;;;;;12.27;6.43;;;;;;;;;;5025206;28;20233;-65
2022/04/16 09:07:02;;;;;;;11.57;5.97;;;;;;;;;;5024224;28;20206;-67
2022/04/16 09:09:28;;;;;;;11.23;5.35;;;;;;;;;;5024394;28;20189;-66
2022/04/16 09:11:55;;;;;;;8.60;4.85;;;;;;;;;;5024455;28;20229;-66
2022/04/16 09:14:37;;;;;;;9.73;5.15;;;;;;;;;;5025627;28;20181;-66
2022/04/16 09:17:09;;;;;;;9.60;5.00;;;;;;;;;;5023327;28;20189;-66
2022/04/16 09:19:34;;;;;;;10.05;5.05;;;;;;;;;;5023685;28;20197;-65
2022/04/16 09:21:59;;;;;;;10.40;4.80;;;;;;;;;;5024102;28;20637;-66
2022/04/16 09:24:25;;;;;;;9.02;5.45;;;;;;;;;;5025148;28;20653;-64
2022/04/16 09:26:51;;;;;;;10.35;5.82;;;;;;;;;;5025848;28;20182;-67
2022/04/16 09:29:18;;;;;;;9.85;4.93;;;;;;;;;;5025457;28;20214;-65
2022/04/16 09:31:46;;;;;;;9.35;5.05;;;;;;;;;;5020880;28;20284;-66
2022/04/16 09:34:23;;;;;;;6.55;3.95;;;;;;;;;;5024723;28;20190;-66
2022/04/16 09:36:50;;;;;;;9.32;4.40;;;;;;;;;;5023715;28;20653;-66
2022/04/16 09:39:17;;;;;;;9.35;3.90;;;;;;;;;;5026080;28;20263;-66
2022/04/16 09:41:46;;;;;;;7.30;3.67;;;;;;;;;;5021274;28;20194;-66
2022/04/16 09:44:30;;;;;;;9.45;4.03;;;;;;;;;;5017729;28;20292;-66
2022/04/16 09:46:56;;;;;;;5.65;3.88;;;;;;;;;;5023222;28;20170;-66
2022/04/16 09:49:22;;;;;;;5.55;3.30;;;;;;;;;;5026697;28;20196;-65
2022/04/16 09:51:49;;;;;;;6.65;3.60;;;;;;;;;;5021512;28;20601;-67
2022/04/16 09:54:15;;;;;;;6.78;3.65;;;;;;;;;;5017302;28;20478;-67
2022/04/16 09:56:46;;;;;;;5.13;3.28;;;;;;;;;;5021234;28;20189;-66
2022/04/16 09:59:13;;;;;;;7.32;3.88;;;;;;;;;;5023400;28;20236;-66
2022/04/16 10:01:47;;;;;;;6.07;3.03;;;;;;;;;;5022028;28;20248;-66
2022/04/16 10:04:16;;;;;;;4.25;2.75;;;;;;;;;;5021449;28;20209;-65
2022/04/16 10:06:41;;;;;;;4.75;3.50;;;;;;;;;;5027568;28;20179;-66
2022/04/16 10:09:22;;;;;;;5.10;2.95;;;;;;;;;;5029639;28;20665;-69
2022/04/16 10:15:02;;;;;;;5.55;2.88;;;;;;;;;;5030803;28;20185;-67
2022/04/16 10:17:32;;;;;;;4.35;2.67;;;;;;;;;;5023497;28;20194;-66
2022/04/16 10:20:25;;;;;;;5.43;2.92;;;;;;;;;;5030534;28;20689;-66
2022/04/16 10:22:58;;;;;;;4.05;2.78;;;;;;;;;;5027298;28;20222;-66
2022/04/16 10:25:34;;;;;;;5.63;3.05;;;;;;;;;;5030223;28;20174;-66
2022/04/16 10:28:03;;;;;;;5.25;3.03;;;;;;;;;;5022880;28;20194;-66
2022/04/16 10:30:52;;;;;;;6.30;2.67;;;;;;;;;;5028134;28;20174;-67
2022/04/16 10:33:23;;;;;;;4.95;2.40;;;;;;;;;;5027738;28;20183;-67
2022/04/16 10:35:56;;;;;;;3.75;2.38;;;;;;;;;;5029867;28;20271;-66
2022/04/16 10:38:40;;;;;;;4.88;2.80;;;;;;;;;;5026795;28;20198;-66
2022/04/16 10:41:14;;;;;;;3.90;2.40;;;;;;;;;;5029715;28;20756;-67
2022/04/16 10:43:40;;;;;;;5.10;2.85;;;;;;;;;;5027450;28;20591;-66
2022/04/16 10:46:09;;;;;;;4.85;2.80;;;;;;;;;;5026517;28;20261;-66
2022/04/16 10:48:38;;;;;;;5.78;2.80;;;;;;;;;;5028184;28;20178;-66
2022/04/16 10:51:05;;;;;;;5.15;3.20;;;;;;;;;;5029411;28;20227;-66
2022/04/16 10:53:36;;;;;;;4.32;2.67;;;;;;;;;;5026973;28;20320;-66
2022/04/16 10:56:15;;;;;;;5.50;3.05;;;;;;;;;;5029086;28;20704;-66
2022/04/16 10:58:42;;;;;;;3.67;2.53;;;;;;;;;;5025711;28;20632;-66
2022/04/16 11:01:10;;;;;;;5.50;2.60;;;;;;;;;;5027517;28;20228;-66
2022/04/16 11:03:44;;;;;;;5.00;2.65;;;;;;;;;;5029452;28;20197;-66
2022/04/16 11:06:09;;;;;;;4.80;2.67;;;;;;;;;;5026828;28;20223;-66
2022/04/16 11:08:38;;;;;;;3.17;2.30;;;;;;;;;;5028644;28;20557;-66
2022/04/16 11:11:03;;;;;;;4.68;2.42;;;;;;;;;;5027132;28;20186;-66
2022/04/16 11:13:33;;;;;;;5.22;2.55;;;;;;;;;;5025115;28;20178;-66
2022/04/16 11:15:59;;;;;;;5.13;2.50;;;;;;;;;;5027393;28;20186;-66
2022/04/16 11:18:26;;;;;;;5.68;2.40;;;;;;;;;;5025837;28;20182;-66
2022/04/16 11:20:58;;;;;;;2.33;1.95;;;;;;;;;;5027243;28;20202;-66
2022/04/16 11:23:26;;;;;;;4.32;2.25;;;;;;;;;;5026182;28;20689;-67
2022/04/16 11:34:23;;;;;;;3.78;2.10;;;;;;;;;;5013056;28;20602;-66
2022/04/16 11:36:52;;;;;;;3.95;2.13;;;;;;;;;;5018870;28;20182;-66
2022/04/16 11:39:28;;;;;;;3.40;2.15;;;;;;;;;;5026889;28;20308;-66
2022/04/16 11:41:55;;;;;;;3.70;2.03;;;;;;;;;;5024644;28;20283;-66
2022/04/16 11:44:45;;;;;;;4.13;2.15;;;;;;;;;;5025317;28;20206;-66
2022/04/16 11:47:13;;;;;;;2.08;1.63;;;;;;;;;;5024185;28;20189;-66
2022/04/16 11:49:49;;;;;;;3.13;1.88;;;;;;;;;;5026268;28;20171;-66
2022/04/16 11:52:14;;;;;;;3.20;1.80;;;;;;;;;;5024462;28;20182;-66
2022/04/16 11:54:40;;;;;;;2.45;2.00;;;;;;;;;;5026182;28;20182;-67
2022/04/16 11:57:06;;;;;;;3.08;1.77;;;;;;;;;;5024958;28;20189;-67
2022/04/16 11:59:33;;;;;;;2.25;1.60;;;;;;;;;;5025834;28;20265;-66
2022/04/16 12:02:03;;;;;;;2.38;1.60;;;;;;;;;;5024327;28;20271;-67
2022/04/16 12:04:37;;;;;;;2.72;1.60;;;;;;;;;;5026480;28;20803;-66
2022/04/16 12:07:08;;;;;;;2.05;1.55;;;;;;;;;;5014032;28;20182;-66
2022/04/16 12:09:33;;;;;;;3.65;2.05;;;;;;;;;;5024531;28;20197;-66
2022/04/16 12:12:01;;;;;;;3.03;1.70;;;;;;;;;;5026713;28;20214;-66
2022/04/16 12:14:26;;;;;;;2.38;1.67;;;;;;;;;;5026807;28;20179;-66
2022/04/16 12:16:59;;;;;;;2.35;1.55;;;;;;;;;;5026887;28;20658;-66
2022/04/16 12:19:31;;;;;;;4.40;1.90;;;;;;;;;;5026514;28;20201;-66
2022/04/16 12:21:57;;;;;;;3.00;1.60;;;;;;;;;;5027222;28;20185;-67
2022/04/16 12:24:29;;;;;;;2.38;1.42;;;;;;;;;;5025288;28;20275;-67
2022/04/16 12:26:56;;;;;;;2.05;1.58;;;;;;;;;;5027372;28;20178;-66
2022/04/16 12:29:29;;;;;;;2.05;1.20;;;;;;;;;;5025099;28;20186;-67
2022/04/16 12:31:59;;;;;;;1.40;1.30;;;;;;;;;;5026387;28;20201;-66
2022/04/16 12:34:27;;;;;;;2.53;1.50;;;;;;;;;;5028316;28;20179;-66
2022/04/16 12:36:53;;;;;;;1.65;1.52;;;;;;;;;;5028293;28;20228;-66
2022/04/16 12:39:19;;;;;;;3.75;1.92;;;;;;;;;;5026049;28;20635;-66
2022/04/16 12:41:44;;;;;;;2.20;1.67;;;;;;;;;;5024585;28;20182;-65
2022/04/16 12:44:09;;;;;;;1.95;1.50;;;;;;;;;;5026380;28;20248;-65
2022/04/16 12:46:35;;;;;;;1.85;0.80;;;;;;;;;;5027749;28;20225;-65
2022/04/16 12:49:00;;;;;;;1.77;1.20;;;;;;;;;;5026394;28;20213;-65
2022/04/16 12:51:26;;;;;;;2.08;0.90;;;;;;;;;;5024749;28;20224;-65
2022/04/16 12:53:52;;;;;;;1.67;1.15;;;;;;;;;;5024744;28;20732;-65
2022/04/16 12:56:17;;;;;;;1.23;1.13;;;;;;;;;;5026942;28;20190;-65
2022/04/16 12:58:43;;;;;;;2.97;1.00;;;;;;;;;;5026964;28;20232;-65
2022/04/16 13:01:08;;;;;;;1.02;0.85;;;;;;;;;;5022670;28;20298;-65
2022/04/16 13:03:34;;;;;;;1.92;0.90;;;;;;;;;;5019731;28;20194;-66
2022/04/16 13:06:00;;;;;;;1.42;1.17;;;;;;;;;;5025997;28;20213;-66
2022/04/16 13:08:25;;;;;;;1.83;1.00;;;;;;;;;;5026506;28;20601;-65
2022/04/16 13:10:51;;;;;;;1.13;1.00;;;;;;;;;;5027238;28;20224;-66
2022/04/16 13:13:16;;;;;;;1.40;0.88;;;;;;;;;;5025202;28;20225;-66
2022/04/16 13:15:42;;;;;;;1.00;0.90;;;;;;;;;;5025247;28;20235;-65
2022/04/16 13:18:07;;;;;;;2.58;0.88;;;;;;;;;;5025412;28;20204;-66
2022/04/16 13:20:33;;;;;;;2.50;0.90;;;;;;;;;;5026491;28;20255;-66
2022/04/16 13:22:58;;;;;;;1.08;0.77;;;;;;;;;;5024239;28;20557;-67
2022/04/16 13:25:25;;;;;;;1.13;0.70;;;;;;;;;;5026958;28;20182;-65
2022/04/16 13:27:50;;;;;;;2.55;1.00;;;;;;;;;;5026971;28;20182;-65
2022/04/16 13:30:16;;;;;;;1.08;0.90;;;;;;;;;;5027460;28;20688;-66
2022/04/16 13:32:41;;;;;;;1.55;0.80;;;;;;;;;;5024786;28;20481;-65
2022/04/16 13:35:07;;;;;;;2.38;1.02;;;;;;;;;;5026487;28;20703;-66
2022/04/16 13:37:32;;;;;;;2.00;0.93;;;;;;;;;;5026881;28;20182;-66
2022/04/16 13:42:42;;;;;;;2.78;1.35;;;;;;;;;;5025503;28;20743;-65
2022/04/16 13:45:07;;;;;;;1.25;1.10;;;;;;;;;;5027117;28;20186;-65
2022/04/16 13:47:33;;;;;;;1.98;1.15;;;;;;;;;;5025866;28;20189;-65
2022/04/16 13:49:58;;;;;;;1.40;1.30;;;;;;;;;;5025755;28;20284;-66
2022/04/16 13:52:24;;;;;;;4.85;1.70;;;;;;;;;;5025478;28;20178;-65
2022/04/16 13:54:49;;;;;;;1.50;1.40;;;;;;;;;;5025336;28;20232;-65
2022/04/16 13:57:14;;;;;;;2.47;1.38;;;;;;;;;;5025843;28;20182;-66
2022/04/16 13:59:40;;;;;;;0.85;0.85;;;;;;;;;;5024817;28;21170;-66
2022/04/16 14:02:06;;;;;;;1.40;1.10;;;;;;;;;;5024163;28;20182;-65
2022/04/16 14:07:16;;;;;;;2.20;0.82;;;;;;;;;;5024197;28;20255;-66
2022/04/16 14:09:41;;;;;;;1.20;1.00;;;;;;;;;;5023300;28;20217;-66
2022/04/16 14:12:07;;;;;;;0.98;0.82;;;;;;;;;;5025379;28;20348;-65
2022/04/16 14:14:32;;;;;;;1.48;1.00;;;;;;;;;;5024863;28;20174;-65
2022/04/16 14:16:57;;;;;;;1.13;1.05;;;;;;;;;;5024638;28;20186;-65
2022/04/16 14:19:23;;;;;;;1.60;1.02;;;;;;;;;;5025469;28;20186;-65
2022/04/16 14:21:48;;;;;;;1.92;1.30;;;;;;;;;;5023701;28;20178;-65
2022/04/16 14:24:13;;;;;;;1.90;1.30;;;;;;;;;;5024839;28;20268;-65
2022/04/16 14:26:42;;;;;;;3.00;0.93;;;;;;;;;;5023817;28;20224;-65
2022/04/16 14:29:07;;;;;;;2.13;1.15;;;;;;;;;;5021454;28;20268;-66
2022/04/16 14:31:32;;;;;;;2.30;1.20;;;;;;;;;;5024683;28;20213;-66
2022/04/16 14:33:58;;;;;;;1.30;1.20;;;;;;;;;;5020457;28;20240;-66
2022/04/16 14:36:23;;;;;;;1.30;1.20;;;;;;;;;;5022293;28;20184;-66
2022/04/16 14:38:49;;;;;;;1.75;1.17;;;;;;;;;;5018790;28;20494;-65
2022/04/16 14:41:15;;;;;;;1.02;1.00;;;;;;;;;;5023433;28;20181;-66
2022/04/16 14:43:48;;;;;;;2.95;1.45;;;;;;;;;;5020302;28;20202;-66
2022/04/16 14:46:17;;;;;;;1.20;1.10;;;;;;;;;;5022409;28;20413;-66
2022/04/16 14:48:43;;;;;;;1.58;1.20;;;;;;;;;;5023477;28;20178;-65
2022/04/16 14:51:08;;;;;;;1.45;1.02;;;;;;;;;;5026191;28;20578;-66
2022/04/16 14:53:35;;;;;;;2.25;1.67;;;;;;;;;;5027256;28;20210;-66
2022/04/16 14:56:01;;;;;;;1.92;1.73;;;;;;;;;;5029041;28;20195;-66
2022/04/16 14:58:27;;;;;;;3.53;1.30;;;;;;;;;;5027565;28;20735;-67
2022/04/16 15:00:52;;;;;;;1.83;1.48;;;;;;;;;;5029728;28;20494;-67
2022/04/16 15:03:17;;;;;;;1.33;1.15;;;;;;;;;;5027678;28;20733;-66